createdAt,value
2017-10-07T00:02:14.563Z,87.90
2017-10-07T00:04:42.074Z,87.90
2017-10-07T00:07:09.636Z,87.90
2017-10-07T00:09:37.145Z,87.80
2017-10-07T00:12:05.417Z,87.80
2017-10-07T00:14:32.962Z,87.70
2017-10-07T00:17:00.467Z,87.80
2017-10-07T00:19:28.009Z,87.80
2017-10-07T00:21:55.519Z,88.50
2017-10-07T00:24:23.828Z,88.00
2017-10-07T00:26:51.354Z,88.00
2017-10-07T00:29:18.894Z,87.70
2017-10-07T00:31:46.394Z,87.50
2017-10-07T00:34:13.989Z,87.60
2017-10-07T00:36:42.257Z,87.40
2017-10-07T00:39:09.754Z,87.40
2017-10-07T00:41:38.057Z,87.60
2017-10-07T00:44:05.587Z,87.60
2017-10-07T00:46:33.127Z,87.40
2017-10-07T00:49:00.638Z,87.20
2017-10-07T00:51:28.171Z,87.10
2017-10-07T00:53:55.673Z,86.80
2017-10-07T00:56:23.217Z,86.70
2017-10-07T00:58:50.730Z,86.30
2017-10-07T01:01:18.266Z,86.30
2017-10-07T01:03:45.770Z,86.20
2017-10-07T01:06:13.319Z,86.30
2017-10-07T01:08:40.847Z,86.00
2017-10-07T01:11:09.166Z,85.70
2017-10-07T01:13:36.681Z,85.60
2017-10-07T01:16:04.183Z,85.70
2017-10-07T01:18:31.734Z,85.90
2017-10-07T01:20:59.275Z,85.60
2017-10-07T01:23:26.933Z,85.70
2017-10-07T01:25:54.716Z,86.00
2017-10-07T01:28:22.282Z,86.00
2017-10-07T01:30:49.801Z,86.10
2017-10-07T01:33:17.342Z,86.00
2017-10-07T01:35:46.866Z,86.20
2017-10-07T01:38:14.435Z,86.20
2017-10-07T01:40:42.005Z,86.70
2017-10-07T01:43:09.540Z,86.00
2017-10-07T01:45:37.099Z,85.80
2017-10-07T01:48:05.396Z,85.90
2017-10-07T01:50:32.984Z,85.90
2017-10-07T01:53:00.493Z,86.20
2017-10-07T01:55:28.034Z,86.30
2017-10-07T01:57:55.560Z,86.30
2017-10-07T02:00:23.112Z,86.30
2017-10-07T02:02:50.667Z,86.10
2017-10-07T02:05:18.194Z,86.00
2017-10-07T02:07:45.747Z,85.90
2017-10-07T02:10:13.257Z,85.80
2017-10-07T02:12:40.799Z,85.80
2017-10-07T02:15:09.103Z,85.50
2017-10-07T02:17:36.654Z,85.30
2017-10-07T02:20:04.167Z,85.10
2017-10-07T02:22:31.679Z,84.90
2017-10-07T02:24:59.214Z,85.00
2017-10-07T02:27:26.718Z,85.00
2017-10-07T02:29:54.277Z,84.90
2017-10-07T02:32:21.795Z,84.60
2017-10-07T02:34:50.111Z,84.50
2017-10-07T02:37:17.628Z,84.50
2017-10-07T02:39:45.182Z,84.50
2017-10-07T02:42:12.682Z,84.30
2017-10-07T02:44:40.562Z,84.10
2017-10-07T02:47:08.152Z,84.20
2017-10-07T02:49:36.166Z,83.70
2017-10-07T02:52:03.915Z,84.00
2017-10-07T02:54:32.220Z,83.70
2017-10-07T02:57:00.270Z,83.70
2017-10-07T02:59:28.204Z,84.00
2017-10-07T03:01:56.167Z,83.60
2017-10-07T03:04:23.681Z,83.80
2017-10-07T03:06:51.229Z,83.80
2017-10-07T03:09:18.745Z,83.90
2017-10-07T03:11:46.293Z,83.80
2017-10-07T03:14:13.815Z,84.10
2017-10-07T03:16:42.140Z,84.10
2017-10-07T03:19:09.642Z,84.10
2017-10-07T03:21:37.193Z,85.00
2017-10-07T03:24:04.716Z,84.00
2017-10-07T03:26:33.056Z,83.60
2017-10-07T03:29:00.573Z,83.60
2017-10-07T03:31:28.839Z,83.80
2017-10-07T03:33:56.406Z,83.80
2017-10-07T03:36:24.065Z,83.90
2017-10-07T03:38:51.674Z,84.00
2017-10-07T03:41:19.397Z,85.30
2017-10-07T03:43:47.433Z,85.30
2017-10-07T03:46:15.223Z,85.50
2017-10-07T03:48:43.429Z,85.60
2017-10-07T03:51:12.412Z,85.50
2017-10-07T03:53:40.223Z,85.40
2017-10-07T03:56:08.223Z,85.40
2017-10-07T03:58:35.767Z,85.20
2017-10-07T04:01:03.263Z,84.90
2017-10-07T04:03:30.771Z,84.80
2017-10-07T04:05:59.375Z,85.00
2017-10-07T04:08:26.882Z,84.60
2017-10-07T04:10:54.428Z,84.90
2017-10-07T04:13:21.928Z,84.50
2017-10-07T04:15:49.474Z,84.40
2017-10-07T04:18:16.987Z,84.30
2017-10-07T04:20:44.526Z,84.30
2017-10-07T04:23:12.090Z,84.50
2017-10-07T04:25:39.647Z,84.60
2017-10-07T04:28:07.185Z,84.70
2017-10-07T04:30:34.834Z,84.80
2017-10-07T04:33:02.325Z,84.70
2017-10-07T04:35:29.839Z,84.70
2017-10-07T04:37:57.390Z,84.60
2017-10-07T04:40:24.896Z,84.50
2017-10-07T04:42:53.199Z,84.10
2017-10-07T04:45:20.695Z,84.10
2017-10-07T04:47:48.245Z,84.20
2017-10-07T04:50:15.751Z,84.30
2017-10-07T04:52:43.286Z,84.50
2017-10-07T04:55:10.789Z,84.40
2017-10-07T04:57:38.335Z,84.30
2017-10-07T05:00:05.883Z,84.00
2017-10-07T05:02:34.210Z,83.90
2017-10-07T05:05:01.715Z,83.90
2017-10-07T05:07:29.275Z,83.80
2017-10-07T05:09:56.834Z,84.00
2017-10-07T05:12:24.342Z,84.20
2017-10-07T05:14:51.895Z,84.20
2017-10-07T05:17:19.396Z,84.20
2017-10-07T05:19:46.937Z,84.10
2017-10-07T05:22:14.447Z,83.90
2017-10-07T05:24:42.842Z,83.60
2017-10-07T05:27:11.153Z,83.50
2017-10-07T05:29:39.527Z,83.50
2017-10-07T05:32:07.314Z,83.60
2017-10-07T05:34:34.879Z,83.10
2017-10-07T05:37:03.476Z,82.80
2017-10-07T05:39:31.204Z,82.80
2017-10-07T05:41:58.751Z,82.90
2017-10-07T05:44:26.248Z,82.80
2017-10-07T05:46:53.780Z,82.70
2017-10-07T05:49:21.294Z,82.20
2017-10-07T05:51:48.842Z,82.20
2017-10-07T05:54:16.360Z,82.00
2017-10-07T05:56:43.907Z,81.70
2017-10-07T05:59:11.413Z,81.70
2017-10-07T06:01:38.919Z,80.80
2017-10-07T06:04:06.459Z,81.30
2017-10-07T06:06:34.018Z,81.70
2017-10-07T06:09:01.558Z,81.50
2017-10-07T06:11:29.066Z,81.50
2017-10-07T06:13:56.612Z,81.10
2017-10-07T06:16:24.108Z,80.70
2017-10-07T06:18:51.642Z,80.50
2017-10-07T06:21:19.858Z,80.10
2017-10-07T06:23:47.410Z,79.90
2017-10-07T06:26:14.922Z,79.60
2017-10-07T06:28:43.198Z,76.70
2017-10-07T06:31:10.835Z,76.70
2017-10-07T06:33:38.371Z,75.80
2017-10-07T06:36:05.914Z,75.20
2017-10-07T06:38:33.435Z,74.00
2017-10-07T06:41:00.993Z,73.50
2017-10-07T06:43:28.514Z,73.00
2017-10-07T06:45:56.062Z,72.50
2017-10-07T06:48:23.577Z,73.40
2017-10-07T06:50:51.122Z,73.00
2017-10-07T06:53:18.635Z,73.00
2017-10-07T06:55:46.184Z,71.90
2017-10-07T06:58:13.690Z,71.40
2017-10-07T07:00:41.247Z,71.30
2017-10-07T07:03:09.527Z,70.50
2017-10-07T07:05:37.034Z,70.50
2017-10-07T07:08:04.582Z,69.80
2017-10-07T07:10:32.078Z,69.20
2017-10-07T07:12:59.621Z,68.90
2017-10-07T07:15:27.895Z,65.70
2017-10-07T07:17:55.454Z,65.70
2017-10-07T07:20:23.058Z,66.20
2017-10-07T07:22:50.618Z,66.00
2017-10-07T07:25:18.142Z,66.20
2017-10-07T07:27:45.645Z,66.70
2017-10-07T07:30:13.183Z,66.70
2017-10-07T07:32:40.702Z,66.00
2017-10-07T07:35:08.242Z,64.50
2017-10-07T07:37:35.775Z,62.20
2017-10-07T07:40:04.136Z,63.70
2017-10-07T07:42:31.647Z,63.70
2017-10-07T07:44:59.307Z,63.90
2017-10-07T07:47:27.579Z,64.60
2017-10-07T07:49:55.150Z,64.60
2017-10-07T07:52:22.692Z,65.50
2017-10-07T07:54:50.490Z,64.30
2017-10-07T07:57:17.995Z,63.20
2017-10-07T07:59:45.503Z,62.80
2017-10-07T08:02:13.150Z,62.30
2017-10-07T08:04:40.726Z,62.50
2017-10-07T08:07:08.282Z,63.10
2017-10-07T08:09:35.820Z,62.80
2017-10-07T08:12:03.366Z,62.90
2017-10-07T08:14:30.883Z,64.60
2017-10-07T08:16:58.480Z,63.90
2017-10-07T08:19:25.984Z,64.60
2017-10-07T08:21:53.518Z,64.50
2017-10-07T08:24:21.799Z,64.10
2017-10-07T08:26:49.323Z,64.10
2017-10-07T08:29:16.935Z,64.60
2017-10-07T08:31:45.221Z,64.60
2017-10-07T08:34:12.806Z,64.60
2017-10-07T08:36:41.080Z,64.60
2017-10-07T08:39:08.635Z,64.60
2017-10-07T08:41:36.158Z,66.00
2017-10-07T08:44:03.718Z,64.80
2017-10-07T08:46:31.223Z,65.40
2017-10-07T08:48:59.025Z,65.70
2017-10-07T08:51:26.535Z,65.80
2017-10-07T08:53:54.811Z,65.50
2017-10-07T08:56:22.359Z,65.50
2017-10-07T08:58:49.876Z,64.80
2017-10-07T09:01:18.181Z,65.80
2017-10-07T09:03:46.643Z,65.70
2017-10-07T09:06:14.183Z,65.80
2017-10-07T09:08:41.695Z,65.70
2017-10-07T09:11:09.229Z,65.20
2017-10-07T09:13:36.744Z,65.10
2017-10-07T09:16:04.283Z,64.60
2017-10-07T09:18:31.830Z,63.50
2017-10-07T09:20:59.382Z,63.30
2017-10-07T09:23:26.901Z,62.80
2017-10-07T09:25:54.469Z,61.90
2017-10-07T09:28:21.979Z,63.00
2017-10-07T09:30:49.515Z,62.20
2017-10-07T09:33:17.065Z,61.30
2017-10-07T09:35:44.573Z,61.30
2017-10-07T09:38:12.926Z,60.10
2017-10-07T09:40:40.448Z,60.10
2017-10-07T09:43:08.758Z,59.00
2017-10-07T09:45:36.266Z,58.90
2017-10-07T09:48:03.827Z,58.90
2017-10-07T09:50:31.342Z,58.50
2017-10-07T09:52:59.203Z,57.50
2017-10-07T09:55:26.728Z,58.40
2017-10-07T09:57:54.406Z,58.70
2017-10-07T10:00:21.961Z,59.60
2017-10-07T10:02:49.480Z,59.10
2017-10-07T10:05:17.026Z,59.10
2017-10-07T10:07:44.536Z,59.50
2017-10-07T10:10:12.079Z,59.20
2017-10-07T10:12:39.855Z,59.50
2017-10-07T10:15:07.417Z,58.50
2017-10-07T10:17:34.924Z,58.80
2017-10-07T10:20:03.537Z,58.90
2017-10-07T10:22:31.057Z,58.90
2017-10-07T10:24:58.559Z,58.80
2017-10-07T10:27:26.101Z,59.20
2017-10-07T10:29:53.737Z,58.60
2017-10-07T10:32:21.350Z,59.00
2017-10-07T10:34:48.865Z,59.90
2017-10-07T10:37:16.416Z,59.90
2017-10-07T10:39:44.166Z,59.80
2017-10-07T10:42:11.701Z,60.00
2017-10-07T10:44:39.989Z,61.00
2017-10-07T10:47:07.559Z,61.00
2017-10-07T10:49:35.065Z,62.10
2017-10-07T10:52:02.606Z,61.50
2017-10-07T10:54:30.119Z,62.00
2017-10-07T10:56:57.668Z,61.30
2017-10-07T10:59:25.175Z,60.30
2017-10-07T11:01:52.710Z,61.20
2017-10-07T11:04:21.025Z,60.40
2017-10-07T11:06:48.552Z,60.40
2017-10-07T11:09:16.106Z,59.50
2017-10-07T11:11:43.627Z,59.00
2017-10-07T11:14:11.195Z,58.80
2017-10-07T11:16:38.733Z,57.70
2017-10-07T11:19:07.129Z,58.20
2017-10-07T11:21:49.391Z,58.10
2017-10-07T11:24:16.945Z,58.10
2017-10-07T11:26:45.217Z,58.50
2017-10-07T11:29:12.719Z,58.50
2017-10-07T11:31:40.286Z,58.70
2017-10-07T11:34:07.794Z,59.10
2017-10-07T11:36:35.333Z,59.20
2017-10-07T11:39:02.847Z,59.70
2017-10-07T11:41:30.463Z,59.10
2017-10-07T11:43:58.034Z,60.10
2017-10-07T11:46:26.356Z,61.90
2017-10-07T11:48:53.858Z,61.90
2017-10-07T11:51:21.418Z,63.10
2017-10-07T11:53:49.190Z,63.20
2017-10-07T11:56:16.755Z,64.10
2017-10-07T11:58:44.265Z,64.40
2017-10-07T12:01:11.834Z,65.20
2017-10-07T12:03:39.377Z,66.30
2017-10-07T12:06:06.902Z,66.90
2017-10-07T12:08:35.222Z,67.80
2017-10-07T12:11:02.728Z,67.70
2017-10-07T12:13:30.319Z,68.80
2017-10-07T12:15:57.828Z,68.80
2017-10-07T12:18:25.367Z,69.60
2017-10-07T12:20:53.654Z,71.40
2017-10-07T12:23:21.190Z,71.40
2017-10-07T12:25:48.690Z,70.50
2017-10-07T12:28:16.615Z,71.50
2017-10-07T12:30:44.171Z,71.30
2017-10-07T12:33:13.047Z,72.00
2017-10-07T12:35:53.491Z,72.00
2017-10-07T12:38:21.602Z,72.00
2017-10-07T12:43:22.227Z,71.10
2017-10-07T12:45:51.543Z,71.60
2017-10-07T12:48:22.173Z,71.50
2017-10-07T12:50:53.379Z,71.90
2017-10-07T12:53:21.248Z,71.90
2017-10-07T12:55:48.950Z,72.00
2017-10-07T12:58:16.618Z,72.60
2017-10-07T13:00:44.315Z,73.30
2017-10-07T13:03:19.252Z,73.60
2017-10-07T13:05:46.851Z,74.40
2017-10-07T13:08:15.135Z,76.30
2017-10-07T13:10:43.687Z,77.00
2017-10-07T13:13:11.232Z,77.00
2017-10-07T13:15:38.784Z,75.90
2017-10-07T13:18:07.098Z,76.40
2017-10-07T13:20:34.607Z,76.40
2017-10-07T13:23:02.171Z,76.20
2017-10-07T13:25:29.682Z,75.90
2017-10-07T13:27:57.240Z,75.80
2017-10-07T13:30:24.791Z,75.40
2017-10-07T13:32:52.355Z,75.50
2017-10-07T13:35:19.863Z,75.50
2017-10-07T13:37:47.437Z,75.90
2017-10-07T13:40:15.714Z,73.90
2017-10-07T13:42:43.260Z,73.90
2017-10-07T13:45:10.762Z,74.50
2017-10-07T13:47:38.302Z,74.50
2017-10-07T13:50:05.813Z,74.00
2017-10-07T13:52:34.114Z,74.40
2017-10-07T13:55:01.670Z,74.30
2017-10-07T13:57:29.227Z,72.50
2017-10-07T13:59:56.814Z,72.90
2017-10-07T14:02:24.322Z,73.40
2017-10-07T14:04:51.968Z,73.20
2017-10-07T14:07:19.471Z,72.30
2017-10-07T14:09:47.007Z,71.40
2017-10-07T14:12:15.297Z,71.50
2017-10-07T14:14:43.635Z,71.10
2017-10-07T14:17:11.148Z,71.50
2017-10-07T14:19:38.681Z,71.00
2017-10-07T14:22:06.186Z,70.70
2017-10-07T14:24:33.747Z,70.50
2017-10-07T14:27:01.257Z,70.70
2017-10-07T14:29:29.518Z,70.20
2017-10-07T14:31:58.105Z,70.20
2017-10-07T14:34:26.248Z,70.80
2017-10-07T14:36:54.113Z,70.00
2017-10-07T14:39:21.671Z,70.60
2017-10-07T14:41:49.981Z,70.80
2017-10-07T14:44:17.490Z,70.70
2017-10-07T14:46:45.174Z,70.10
2017-10-07T14:49:12.684Z,71.10
2017-10-07T14:51:41.810Z,71.60
2017-10-07T14:54:09.313Z,71.60
2017-10-07T14:56:36.830Z,72.40
2017-10-07T14:59:05.386Z,71.20
2017-10-07T15:01:32.934Z,71.10
2017-10-07T15:04:00.576Z,70.40
2017-10-07T15:06:28.227Z,70.10
2017-10-07T15:08:55.779Z,69.30
2017-10-07T15:11:23.290Z,69.40
2017-10-07T15:13:51.624Z,69.90
2017-10-07T15:16:19.132Z,70.00
2017-10-07T15:18:46.688Z,70.30
2017-10-07T15:21:14.203Z,71.00
2017-10-07T15:23:41.703Z,70.70
2017-10-07T15:26:09.261Z,71.40
2017-10-07T15:28:36.780Z,72.00
2017-10-07T15:31:04.322Z,72.40
2017-10-07T15:33:31.836Z,72.80
2017-10-07T15:36:00.052Z,73.00
2017-10-07T15:38:28.325Z,75.30
2017-10-07T15:40:55.979Z,75.40
2017-10-07T15:43:23.484Z,75.80
2017-10-07T15:45:51.082Z,76.70
2017-10-07T15:48:19.234Z,76.70
2017-10-07T15:50:49.790Z,77.20
2017-10-07T15:53:18.410Z,77.30
2017-10-07T15:55:45.918Z,77.30
2017-10-07T15:58:13.465Z,77.30
2017-10-07T16:00:40.972Z,76.90
2017-10-07T16:03:08.507Z,76.40
2017-10-07T16:05:36.010Z,75.90
2017-10-07T16:08:03.608Z,75.30
2017-10-07T16:10:31.154Z,75.40
2017-10-07T16:12:58.667Z,75.10
2017-10-07T16:15:26.987Z,74.20
2017-10-07T16:17:54.510Z,74.20
2017-10-07T16:20:22.173Z,74.00
2017-10-07T16:22:49.687Z,74.20
2017-10-07T16:25:17.208Z,73.90
2017-10-07T16:27:44.746Z,73.30
2017-10-07T16:30:12.268Z,72.80
2017-10-07T16:32:39.818Z,73.30
2017-10-07T16:35:07.322Z,73.10
2017-10-07T16:37:35.638Z,72.10
2017-10-07T16:40:03.154Z,72.10
2017-10-07T16:42:30.695Z,72.30
2017-10-07T16:44:58.219Z,72.40
2017-10-07T16:47:25.746Z,72.50
2017-10-07T16:49:54.065Z,71.80
2017-10-07T16:52:21.583Z,71.80
2017-10-07T16:54:49.122Z,71.40
2017-10-07T16:57:17.431Z,71.50
2017-10-07T16:59:44.993Z,71.50
2017-10-07T17:02:13.262Z,71.30
2017-10-07T17:04:40.769Z,71.30
2017-10-07T17:07:09.075Z,71.50
2017-10-07T17:09:36.586Z,71.50
2017-10-07T17:12:04.126Z,71.60
2017-10-07T17:14:31.630Z,71.50
2017-10-07T17:16:59.176Z,71.50
2017-10-07T17:19:26.696Z,71.80
2017-10-07T17:21:54.234Z,72.10
2017-10-07T17:24:21.734Z,72.10
2017-10-07T17:26:49.291Z,72.10
2017-10-07T17:29:16.834Z,72.00
2017-10-07T17:31:44.347Z,72.20
2017-10-07T17:34:11.899Z,72.10
2017-10-07T17:36:39.402Z,72.30
2017-10-07T17:39:06.946Z,72.60
2017-10-07T17:41:34.595Z,72.50
2017-10-07T17:44:02.167Z,72.50
2017-10-07T17:46:29.735Z,73.00
2017-10-07T17:48:57.315Z,73.20
2017-10-07T17:51:24.893Z,73.30
2017-10-07T17:53:52.448Z,73.30
2017-10-07T17:56:20.027Z,73.70
2017-10-07T17:58:47.575Z,75.20
2017-10-07T18:01:15.848Z,77.10
2017-10-07T18:03:44.182Z,78.30
2017-10-07T18:06:11.695Z,78.30
2017-10-07T18:08:39.239Z,79.50
2017-10-07T18:11:06.774Z,80.40
2017-10-07T18:13:34.366Z,80.80
2017-10-07T18:16:01.904Z,81.30
2017-10-07T18:18:29.415Z,81.80
2017-10-07T18:20:56.965Z,82.30
2017-10-07T18:23:24.489Z,82.00
2017-10-07T18:25:52.038Z,82.40
2017-10-07T18:28:19.560Z,82.10
2017-10-07T18:30:47.066Z,81.30
2017-10-07T18:33:14.606Z,80.60
2017-10-07T18:35:43.896Z,79.60
2017-10-07T18:38:11.431Z,79.60
2017-10-07T18:40:38.950Z,78.60
2017-10-07T18:43:06.518Z,78.10
2017-10-07T18:45:34.031Z,78.20
2017-10-07T18:48:02.567Z,77.70
2017-10-07T18:50:30.066Z,77.20
2017-10-07T18:52:57.559Z,77.00
2017-10-07T18:55:25.867Z,77.10
2017-10-07T18:57:53.432Z,77.10
2017-10-07T19:00:20.976Z,77.00
2017-10-07T19:02:48.522Z,77.00
2017-10-07T19:05:16.112Z,76.50
2017-10-07T19:07:43.618Z,76.30
2017-10-07T19:10:11.160Z,76.60
2017-10-07T19:12:38.691Z,76.00
2017-10-07T19:15:06.291Z,76.30
2017-10-07T19:17:33.818Z,75.50
2017-10-07T19:20:01.424Z,75.80
2017-10-07T19:22:29.797Z,75.20
2017-10-07T19:24:57.326Z,75.20
2017-10-07T19:27:24.879Z,75.50
2017-10-07T19:29:52.395Z,75.70
2017-10-07T19:32:19.952Z,75.10
2017-10-07T19:34:47.521Z,76.00
2017-10-07T19:37:15.608Z,76.10
2017-10-07T19:39:43.159Z,75.60
2017-10-07T19:42:10.679Z,76.00
2017-10-07T19:44:38.212Z,75.90
2017-10-07T19:47:06.522Z,76.00
2017-10-07T19:49:34.079Z,76.00
2017-10-07T19:52:02.412Z,76.80
2017-10-07T19:54:30.014Z,76.80
2017-10-07T19:56:57.568Z,76.90
2017-10-07T19:59:25.197Z,77.40
2017-10-07T20:01:53.498Z,79.10
2017-10-07T20:04:21.077Z,79.20
2017-10-07T20:06:48.616Z,80.00
2017-10-07T20:09:16.207Z,80.50
2017-10-07T20:11:43.763Z,81.70
2017-10-07T20:14:11.709Z,82.20
2017-10-07T20:16:39.269Z,82.60
2017-10-07T20:19:06.778Z,83.60
2017-10-07T20:21:34.382Z,83.70
2017-10-07T20:24:02.938Z,83.90
2017-10-07T20:26:30.504Z,83.80
2017-10-07T20:28:59.600Z,83.90
2017-10-07T20:31:27.130Z,84.20
2017-10-07T20:33:55.491Z,84.80
2017-10-07T20:36:23.874Z,84.80
2017-10-07T20:38:51.410Z,84.70
2017-10-07T20:41:18.912Z,85.10
2017-10-07T20:43:46.470Z,85.10
2017-10-07T20:46:13.978Z,85.60
2017-10-07T20:48:42.298Z,86.50
2017-10-07T20:51:14.225Z,85.70
2017-10-07T20:53:41.774Z,86.20
2017-10-07T20:56:09.301Z,86.50
2017-10-07T20:58:36.864Z,87.00
2017-10-07T21:01:04.367Z,87.30
2017-10-07T21:03:31.888Z,87.30
2017-10-07T21:05:59.438Z,87.50
2017-10-07T21:08:31.016Z,87.80
2017-10-07T21:10:58.558Z,88.30
2017-10-07T21:13:26.065Z,88.20
2017-10-07T21:15:53.602Z,88.70
2017-10-07T21:18:21.102Z,88.70
2017-10-07T21:20:48.808Z,89.10
2017-10-07T21:23:16.354Z,89.20
2017-10-07T21:25:44.081Z,89.10
2017-10-07T21:28:11.619Z,89.20
2017-10-07T21:30:39.160Z,90.00
2017-10-07T21:33:06.688Z,89.70
2017-10-07T21:35:34.994Z,89.80
2017-10-07T21:38:02.538Z,89.70
2017-10-07T21:40:30.288Z,89.90
2017-10-07T21:42:57.794Z,90.00
2017-10-07T21:45:25.294Z,90.00
2017-10-07T21:47:52.844Z,90.00
2017-10-07T21:50:24.267Z,90.00
2017-10-07T21:52:51.983Z,90.00
2017-10-07T21:55:20.251Z,90.30
2017-10-07T21:57:47.798Z,90.30
2017-10-07T22:00:15.330Z,90.20
2017-10-07T22:02:43.649Z,90.30
2017-10-07T22:05:11.147Z,90.30
2017-10-07T22:07:38.918Z,90.40
2017-10-07T22:10:06.442Z,90.40
2017-10-07T22:12:33.960Z,90.40
2017-10-07T22:15:02.678Z,90.30
2017-10-07T22:17:30.183Z,90.40
2017-10-07T22:19:58.486Z,90.50
2017-10-07T22:22:25.983Z,90.50
2017-10-07T22:24:53.541Z,90.50
2017-10-07T22:27:21.051Z,90.50
2017-10-07T22:29:48.607Z,90.70
2017-10-07T22:32:16.105Z,90.60
2017-10-07T22:34:43.602Z,90.70
2017-10-07T22:37:11.909Z,90.60
2017-10-07T22:39:39.425Z,90.60
2017-10-07T22:42:06.987Z,90.60
2017-10-07T22:44:34.501Z,90.70
2017-10-07T22:47:02.815Z,90.90
2017-10-07T22:49:30.314Z,90.90
2017-10-07T22:51:57.874Z,90.80
2017-10-07T22:54:25.387Z,90.80
2017-10-07T22:56:52.935Z,91.00
2017-10-07T22:59:20.446Z,90.90
2017-10-07T23:01:48.714Z,90.90
2017-10-07T23:04:16.246Z,90.90
2017-10-07T23:06:43.748Z,91.00
2017-10-07T23:09:11.279Z,91.00
2017-10-07T23:11:38.782Z,91.00
2017-10-07T23:14:06.322Z,91.10
2017-10-07T23:16:33.903Z,91.00
2017-10-07T23:19:01.439Z,90.90
2017-10-07T23:21:28.941Z,91.00
2017-10-07T23:23:56.482Z,91.20
2017-10-07T23:26:23.991Z,90.90
2017-10-07T23:28:51.958Z,91.00
2017-10-07T23:31:19.515Z,91.00
2017-10-07T23:33:47.786Z,90.90
2017-10-07T23:36:15.322Z,90.90
2017-10-07T23:38:42.825Z,90.80
2017-10-07T23:41:10.382Z,90.90
2017-10-07T23:43:37.886Z,91.00
2017-10-07T23:46:05.380Z,91.00
2017-10-07T23:48:32.914Z,91.10
2017-10-07T23:51:00.411Z,91.10
2017-10-07T23:53:28.726Z,91.10
2017-10-07T23:55:56.222Z,91.10
2017-10-07T23:58:24.175Z,91.00
